sensor_id;sensor_type;location;lat;lon;timestamp;pressure;altitude;pressure_sealevel;temperature;humidity
59686;BME280;45554;51.096;16.976;2022-11-20T00:01:28;99922.47;;;-3.95;71.37
59686;BME280;45554;51.096;16.976;2022-11-20T00:03:59;99919.20;;;-3.95;71.15
59686;BME280;45554;51.096;16.976;2022-11-20T00:06:28;99918.35;;;-3.94;71.06
59686;BME280;45554;51.096;16.976;2022-11-20T00:08:57;99916.80;;;-3.93;70.91
59686;BME280;45554;51.096;16.976;2022-11-20T00:11:26;99913.71;;;-3.91;71.10
59686;BME280;45554;51.096;16.976;2022-11-20T00:13:56;99910.80;;;-3.89;70.96
59686;BME280;45554;51.096;16.976;2022-11-20T00:16:26;99910.29;;;-3.87;70.88
59686;BME280;45554;51.096;16.976;2022-11-20T00:18:55;99904.46;;;-3.87;70.91
59686;BME280;45554;51.096;16.976;2022-11-20T00:21:25;99905.50;;;-3.87;70.78
59686;BME280;45554;51.096;16.976;2022-11-20T00:23:56;99912.01;;;-3.87;70.86
59686;BME280;45554;51.096;16.976;2022-11-20T00:26:27;99911.48;;;-3.89;70.78
59686;BME280;45554;51.096;16.976;2022-11-20T00:28:57;99910.46;;;-3.91;70.72
59686;BME280;45554;51.096;16.976;2022-11-20T00:31:26;99917.66;;;-3.93;70.72
59686;BME280;45554;51.096;16.976;2022-11-20T00:33:55;99914.41;;;-3.94;70.70
59686;BME280;45554;51.096;16.976;2022-11-20T00:36:25;99921.08;;;-3.94;70.98
59686;BME280;45554;51.096;16.976;2022-11-20T00:38:57;99923.83;;;-3.91;71.05
59686;BME280;45554;51.096;16.976;2022-11-20T00:41:27;99918.69;;;-3.89;71.01
59686;BME280;45554;51.096;16.976;2022-11-20T00:43:56;99919.54;;;-3.88;71.01
59686;BME280;45554;51.096;16.976;2022-11-20T00:46:26;99917.66;;;-3.86;71.19
59686;BME280;45554;51.096;16.976;2022-11-20T00:48:54;99917.65;;;-3.84;71.18
59686;BME280;45554;51.096;16.976;2022-11-20T00:51:24;99924.33;;;-3.84;71.28
59686;BME280;45554;51.096;16.976;2022-11-20T00:53:55;99925.01;;;-3.84;71.23
59686;BME280;45554;51.096;16.976;2022-11-20T00:56:24;99926.39;;;-3.85;71.07
59686;BME280;45554;51.096;16.976;2022-11-20T00:58:52;99923.48;;;-3.88;71.00
59686;BME280;45554;51.096;16.976;2022-11-20T01:04:33;99928.94;;;-3.89;71.18
59686;BME280;45554;51.096;16.976;2022-11-20T01:07:01;99928.10;;;-3.88;70.99
59686;BME280;45554;51.096;16.976;2022-11-20T01:09:29;99929.30;;;-3.88;71.13
59686;BME280;45554;51.096;16.976;2022-11-20T01:11:57;99930.33;;;-3.90;71.22
59686;BME280;45554;51.096;16.976;2022-11-20T01:14:26;99932.55;;;-3.92;71.12
59686;BME280;45554;51.096;16.976;2022-11-20T01:16:55;99929.98;;;-3.94;71.23
59686;BME280;45554;51.096;16.976;2022-11-20T01:19:24;99931.70;;;-3.94;71.35
59686;BME280;45554;51.096;16.976;2022-11-20T01:21:53;99934.61;;;-3.94;71.40
59686;BME280;45554;51.096;16.976;2022-11-20T01:24:23;99931.18;;;-3.92;71.50
59686;BME280;45554;51.096;16.976;2022-11-20T01:26:51;99931.34;;;-3.92;71.40
59686;BME280;45554;51.096;16.976;2022-11-20T01:29:23;99937.86;;;-3.92;71.35
59686;BME280;45554;51.096;16.976;2022-11-20T01:31:52;99932.04;;;-3.93;71.30
59686;BME280;45554;51.096;16.976;2022-11-20T01:34:21;99929.48;;;-3.94;71.39
59686;BME280;45554;51.096;16.976;2022-11-20T01:36:52;99924.17;;;-3.95;71.24
59686;BME280;45554;51.096;16.976;2022-11-20T01:39:21;99926.05;;;-3.98;71.24
59686;BME280;45554;51.096;16.976;2022-11-20T01:41:51;99921.78;;;-4.02;71.15
59686;BME280;45554;51.096;16.976;2022-11-20T01:44:53;99922.46;;;-4.06;71.28
59686;BME280;45554;51.096;16.976;2022-11-20T01:47:27;99923.51;;;-4.08;71.40
59686;BME280;45554;51.096;16.976;2022-11-20T01:50:17;99924.88;;;-4.09;71.43
59686;BME280;45554;51.096;16.976;2022-11-20T01:52:49;99922.30;;;-4.10;71.40
59686;BME280;45554;51.096;16.976;2022-11-20T01:55:22;99921.79;;;-4.11;71.40
59686;BME280;45554;51.096;16.976;2022-11-20T01:57:53;99917.67;;;-4.13;71.46
59686;BME280;45554;51.096;16.976;2022-11-20T02:00:22;99920.08;;;-4.14;71.47
59686;BME280;45554;51.096;16.976;2022-11-20T02:02:57;99920.09;;;-4.16;71.65
59686;BME280;45554;51.096;16.976;2022-11-20T02:05:38;99920.41;;;-4.19;71.74
59686;BME280;45554;51.096;16.976;2022-11-20T02:08:09;99914.27;;;-4.24;71.68
59686;BME280;45554;51.096;16.976;2022-11-20T02:10:37;99912.55;;;-4.29;71.76
59686;BME280;45554;51.096;16.976;2022-11-20T02:13:05;99912.90;;;-4.33;71.81
59686;BME280;45554;51.096;16.976;2022-11-20T02:15:52;99913.07;;;-4.39;71.80
59686;BME280;45554;51.096;16.976;2022-11-20T02:18:20;99912.89;;;-4.41;71.99
59686;BME280;45554;51.096;16.976;2022-11-20T02:20:53;99915.61;;;-4.45;71.90
59686;BME280;45554;51.096;16.976;2022-11-20T02:23:38;99916.48;;;-4.47;72.25
59686;BME280;45554;51.096;16.976;2022-11-20T02:26:09;99918.71;;;-4.46;72.32
59686;BME280;45554;51.096;16.976;2022-11-20T02:28:38;99915.80;;;-4.47;72.34
59686;BME280;45554;51.096;16.976;2022-11-20T02:31:06;99916.83;;;-4.50;72.23
59686;BME280;45554;51.096;16.976;2022-11-20T02:33:35;99912.37;;;-4.53;72.46
59686;BME280;45554;51.096;16.976;2022-11-20T02:36:03;99910.16;;;-4.55;72.29
59686;BME280;45554;51.096;16.976;2022-11-20T02:38:31;99908.44;;;-4.56;72.42
59686;BME280;45554;51.096;16.976;2022-11-20T02:40:59;99907.76;;;-4.57;72.55
59686;BME280;45554;51.096;16.976;2022-11-20T02:43:27;99915.63;;;-4.58;72.47
59686;BME280;45554;51.096;16.976;2022-11-20T02:45:54;99919.39;;;-4.59;72.60
59686;BME280;45554;51.096;16.976;2022-11-20T02:48:23;99918.52;;;-4.58;72.68
59686;BME280;45554;51.096;16.976;2022-11-20T02:50:52;99916.48;;;-4.58;72.48
59686;BME280;45554;51.096;16.976;2022-11-20T02:53:19;99915.28;;;-4.58;72.66
59686;BME280;45554;51.096;16.976;2022-11-20T02:55:47;99921.61;;;-4.58;72.46
59686;BME280;45554;51.096;16.976;2022-11-20T02:58:15;99926.90;;;-4.57;72.61
59686;BME280;45554;51.096;16.976;2022-11-20T03:00:43;99919.04;;;-4.55;72.84
59686;BME280;45554;51.096;16.976;2022-11-20T03:03:10;99918.53;;;-4.53;72.64
59686;BME280;45554;51.096;16.976;2022-11-20T03:05:39;99913.23;;;-4.55;72.53
59686;BME280;45554;51.096;16.976;2022-11-20T03:08:06;99914.09;;;-4.58;72.62
59686;BME280;45554;51.096;16.976;2022-11-20T03:10:34;99913.23;;;-4.61;72.69
59686;BME280;45554;51.096;16.976;2022-11-20T03:13:02;99916.81;;;-4.61;72.50
59686;BME280;45554;51.096;16.976;2022-11-20T03:15:30;99919.21;;;-4.62;72.58
59686;BME280;45554;51.096;16.976;2022-11-20T03:17:58;99921.60;;;-4.63;72.52
59686;BME280;45554;51.096;16.976;2022-11-20T03:20:26;99917.48;;;-4.64;72.67
59686;BME280;45554;51.096;16.976;2022-11-20T03:22:54;99918.18;;;-4.63;72.67
59686;BME280;45554;51.096;16.976;2022-11-20T03:25:22;99914.41;;;-4.65;72.68
59686;BME280;45554;51.096;16.976;2022-11-20T03:27:51;99914.41;;;-4.68;72.77
59686;BME280;45554;51.096;16.976;2022-11-20T03:30:18;99916.98;;;-4.70;72.74
59686;BME280;45554;51.096;16.976;2022-11-20T03:32:47;99916.13;;;-4.71;72.85
59686;BME280;45554;51.096;16.976;2022-11-20T03:35:15;99918.00;;;-4.72;72.72
59686;BME280;45554;51.096;16.976;2022-11-20T03:37:43;99915.43;;;-4.73;72.74
59686;BME280;45554;51.096;16.976;2022-11-20T03:40:11;99914.73;;;-4.75;72.81
59686;BME280;45554;51.096;16.976;2022-11-20T03:42:39;99916.45;;;-4.77;72.68
59686;BME280;45554;51.096;16.976;2022-11-20T03:45:16;99918.33;;;-4.77;72.88
59686;BME280;45554;51.096;16.976;2022-11-20T03:47:45;99917.64;;;-4.77;72.98
59686;BME280;45554;51.096;16.976;2022-11-20T03:50:13;99919.54;;;-4.76;72.97
59686;BME280;45554;51.096;16.976;2022-11-20T03:52:41;99918.85;;;-4.74;73.15
59686;BME280;45554;51.096;16.976;2022-11-20T03:55:10;99917.98;;;-4.73;73.01
59686;BME280;45554;51.096;16.976;2022-11-20T03:57:37;99919.36;;;-4.73;72.81
59686;BME280;45554;51.096;16.976;2022-11-20T04:00:06;99914.73;;;-4.75;72.89
59686;BME280;45554;51.096;16.976;2022-11-20T04:02:34;99916.79;;;-4.76;72.77
59686;BME280;45554;51.096;16.976;2022-11-20T04:05:02;99919.19;;;-4.78;72.77
59686;BME280;45554;51.096;16.976;2022-11-20T04:07:29;99913.88;;;-4.81;72.52
59686;BME280;45554;51.096;16.976;2022-11-20T04:09:57;99921.06;;;-4.83;72.55
59686;BME280;45554;51.096;16.976;2022-11-20T04:12:25;99923.62;;;-4.85;72.85
59686;BME280;45554;51.096;16.976;2022-11-20T04:14:53;99923.95;;;-4.87;72.89
59686;BME280;45554;51.096;16.976;2022-11-20T04:17:21;99924.13;;;-4.88;72.81
59686;BME280;45554;51.096;16.976;2022-11-20T04:19:49;99925.83;;;-4.89;72.93
59686;BME280;45554;51.096;16.976;2022-11-20T04:22:16;99927.36;;;-4.90;72.91
59686;BME280;45554;51.096;16.976;2022-11-20T04:24:44;99928.55;;;-4.90;72.89
59686;BME280;45554;51.096;16.976;2022-11-20T04:27:12;99924.29;;;-4.89;72.95
59686;BME280;45554;51.096;16.976;2022-11-20T04:29:40;99922.08;;;-4.87;72.99
59686;BME280;45554;51.096;16.976;2022-11-20T04:32:08;99922.07;;;-4.84;73.36
59686;BME280;45554;51.096;16.976;2022-11-20T04:34:36;99916.27;;;-4.78;73.41
59686;BME280;45554;51.096;16.976;2022-11-20T04:37:04;99917.65;;;-4.74;73.42
59686;BME280;45554;51.096;16.976;2022-11-20T04:39:31;99914.05;;;-4.72;73.50
59686;BME280;45554;51.096;16.976;2022-11-20T04:42:00;99913.04;;;-4.70;73.31
59686;BME280;45554;51.096;16.976;2022-11-20T04:44:46;99915.08;;;-4.70;73.17
59686;BME280;45554;51.096;16.976;2022-11-20T04:47:14;99914.58;;;-4.72;73.14
59686;BME280;45554;51.096;16.976;2022-11-20T04:49:42;99908.75;;;-4.76;73.09
59686;BME280;45554;51.096;16.976;2022-11-20T04:52:10;99907.38;;;-4.82;72.92
59686;BME280;45554;51.096;16.976;2022-11-20T04:54:38;99903.10;;;-4.87;73.07
59686;BME280;45554;51.096;16.976;2022-11-20T04:57:06;99904.11;;;-4.90;73.26
59686;BME280;45554;51.096;16.976;2022-11-20T04:59:41;99902.41;;;-4.91;73.31
59686;BME280;45554;51.096;16.976;2022-11-20T05:02:09;99897.77;;;-4.93;73.33
59686;BME280;45554;51.096;16.976;2022-11-20T05:04:38;99896.59;;;-4.93;73.39
59686;BME280;45554;51.096;16.976;2022-11-20T05:07:05;99892.98;;;-4.93;73.39
59686;BME280;45554;51.096;16.976;2022-11-20T05:09:33;99892.65;;;-4.94;73.42
59686;BME280;45554;51.096;16.976;2022-11-20T05:12:02;99889.92;;;-4.95;73.40
59686;BME280;45554;51.096;16.976;2022-11-20T05:14:30;99882.05;;;-4.98;73.04
59686;BME280;45554;51.096;16.976;2022-11-20T05:16:58;99885.98;;;-4.99;73.36
59686;BME280;45554;51.096;16.976;2022-11-20T05:19:26;99883.07;;;-5.00;73.16
59686;BME280;45554;51.096;16.976;2022-11-20T05:21:54;99882.90;;;-5.02;73.05
59686;BME280;45554;51.096;16.976;2022-11-20T05:24:21;99880.33;;;-5.03;73.32
59686;BME280;45554;51.096;16.976;2022-11-20T05:26:49;99879.81;;;-5.03;73.50
59686;BME280;45554;51.096;16.976;2022-11-20T05:29:17;99881.86;;;-5.04;73.35
59686;BME280;45554;51.096;16.976;2022-11-20T05:31:45;99880.32;;;-5.06;73.28
59686;BME280;45554;51.096;16.976;2022-11-20T05:34:13;99880.84;;;-5.11;73.18
59686;BME280;45554;51.096;16.976;2022-11-20T05:36:41;99882.18;;;-5.13;73.38
59686;BME280;45554;51.096;16.976;2022-11-20T05:39:09;99878.25;;;-5.15;73.41
59686;BME280;45554;51.096;16.976;2022-11-20T05:41:37;99880.29;;;-5.15;73.66
59686;BME280;45554;51.096;16.976;2022-11-20T05:44:05;99877.05;;;-5.14;73.90
59686;BME280;45554;51.096;16.976;2022-11-20T05:46:33;99879.27;;;-5.12;73.95
59686;BME280;45554;51.096;16.976;2022-11-20T05:49:00;99874.16;;;-5.11;73.87
59686;BME280;45554;51.096;16.976;2022-11-20T05:51:28;99874.00;;;-5.08;74.02
59686;BME280;45554;51.096;16.976;2022-11-20T05:53:56;99871.95;;;-5.04;74.16
59686;BME280;45554;51.096;16.976;2022-11-20T05:56:25;99868.20;;;-5.02;74.14
59686;BME280;45554;51.096;16.976;2022-11-20T05:58:54;99863.41;;;-5.01;74.09
59686;BME280;45554;51.096;16.976;2022-11-20T06:01:24;99864.77;;;-5.02;74.18
59686;BME280;45554;51.096;16.976;2022-11-20T06:03:53;99863.58;;;-5.04;74.17
59686;BME280;45554;51.096;16.976;2022-11-20T06:06:21;99862.04;;;-5.06;74.07
59686;BME280;45554;51.096;16.976;2022-11-20T06:08:49;99863.23;;;-5.06;74.09
59686;BME280;45554;51.096;16.976;2022-11-20T06:11:18;99866.98;;;-5.11;74.00
59686;BME280;45554;51.096;16.976;2022-11-20T06:13:46;99864.41;;;-5.13;74.16
59686;BME280;45554;51.096;16.976;2022-11-20T06:16:16;99868.52;;;-5.15;74.32
59686;BME280;45554;51.096;16.976;2022-11-20T06:18:46;99869.36;;;-5.14;74.51
59686;BME280;45554;51.096;16.976;2022-11-20T06:21:19;99866.45;;;-5.14;74.12
59686;BME280;45554;51.096;16.976;2022-11-20T06:23:49;99868.17;;;-5.14;74.41
59686;BME280;45554;51.096;16.976;2022-11-20T06:26:19;99859.63;;;-5.15;74.34
59686;BME280;45554;51.096;16.976;2022-11-20T06:28:48;99856.54;;;-5.15;74.41
59686;BME280;45554;51.096;16.976;2022-11-20T06:31:18;99854.83;;;-5.17;74.41
59686;BME280;45554;51.096;16.976;2022-11-20T06:33:47;99854.66;;;-5.14;74.67
59686;BME280;45554;51.096;16.976;2022-11-20T06:36:17;99857.75;;;-5.15;74.27
59686;BME280;45554;51.096;16.976;2022-11-20T06:38:46;99855.35;;;-5.14;74.53
59686;BME280;45554;51.096;16.976;2022-11-20T06:41:19;99850.39;;;-5.13;74.45
59686;BME280;45554;51.096;16.976;2022-11-20T06:43:48;99851.41;;;-5.13;74.56
59686;BME280;45554;51.096;16.976;2022-11-20T06:46:17;99851.43;;;-5.10;74.77
59686;BME280;45554;51.096;16.976;2022-11-20T06:48:46;99850.93;;;-5.07;74.53
59686;BME280;45554;51.096;16.976;2022-11-20T06:51:14;99850.41;;;-5.04;74.56
59686;BME280;45554;51.096;16.976;2022-11-20T06:53:43;99847.34;;;-5.00;74.34
59686;BME280;45554;51.096;16.976;2022-11-20T06:56:10;99848.89;;;-4.97;74.20
59686;BME280;45554;51.096;16.976;2022-11-20T06:58:38;99857.10;;;-4.91;74.14
59686;BME280;45554;51.096;16.976;2022-11-20T07:01:09;99854.20;;;-4.87;74.30
59686;BME280;45554;51.096;16.976;2022-11-20T07:03:38;99861.73;;;-4.82;74.00
59686;BME280;45554;51.096;16.976;2022-11-20T07:06:06;99863.63;;;-4.78;73.77
59686;BME280;45554;51.096;16.976;2022-11-20T07:08:34;99862.08;;;-4.74;73.75
59686;BME280;45554;51.096;16.976;2022-11-20T07:11:05;99859.86;;;-4.71;73.83
59686;BME280;45554;51.096;16.976;2022-11-20T07:13:33;99863.11;;;-4.65;73.95
59686;BME280;45554;51.096;16.976;2022-11-20T07:16:04;99859.68;;;-4.57;74.22
59686;BME280;45554;51.096;16.976;2022-11-20T07:18:32;99855.23;;;-4.49;73.83
59686;BME280;45554;51.096;16.976;2022-11-20T07:21:06;99852.33;;;-4.45;73.83
59686;BME280;45554;51.096;16.976;2022-11-20T07:23:34;99851.48;;;-4.41;73.67
59686;BME280;45554;51.096;16.976;2022-11-20T07:26:07;99843.77;;;-4.35;73.90
59686;BME280;45554;51.096;16.976;2022-11-20T07:28:36;99843.41;;;-4.30;73.71
59686;BME280;45554;51.096;16.976;2022-11-20T07:31:05;99843.24;;;-4.23;73.78
59686;BME280;45554;51.096;16.976;2022-11-20T07:33:34;99841.71;;;-4.20;73.50
59686;BME280;45554;51.096;16.976;2022-11-20T07:36:02;99846.30;;;-4.16;73.38
59686;BME280;45554;51.096;16.976;2022-11-20T07:38:30;99843.39;;;-4.11;73.50
59686;BME280;45554;51.096;16.976;2022-11-20T07:40:58;99842.88;;;-4.07;73.50
59686;BME280;45554;51.096;16.976;2022-11-20T07:43:29;99844.75;;;-4.03;73.57
59686;BME280;45554;51.096;16.976;2022-11-20T07:45:59;99842.17;;;-3.97;73.59
59686;BME280;45554;51.096;16.976;2022-11-20T07:48:27;99836.49;;;-3.92;73.29
59686;BME280;45554;51.096;16.976;2022-11-20T07:50:57;99831.88;;;-3.89;73.07
59686;BME280;45554;51.096;16.976;2022-11-20T07:53:25;99826.04;;;-3.85;73.33
59686;BME280;45554;51.096;16.976;2022-11-20T07:55:53;99827.55;;;-3.81;73.20
59686;BME280;45554;51.096;16.976;2022-11-20T07:58:21;99827.72;;;-3.76;73.34
59686;BME280;45554;51.096;16.976;2022-11-20T08:00:50;99829.92;;;-3.70;73.28
59686;BME280;45554;51.096;16.976;2022-11-20T08:03:17;99824.59;;;-3.64;73.13
59686;BME280;45554;51.096;16.976;2022-11-20T08:05:51;99823.70;;;-3.57;72.99
59686;BME280;45554;51.096;16.976;2022-11-20T08:08:19;99820.07;;;-3.50;72.76
59686;BME280;45554;51.096;16.976;2022-11-20T08:10:47;99824.83;;;-3.43;72.91
59686;BME280;45554;51.096;16.976;2022-11-20T08:13:15;99826.17;;;-3.36;72.85
59686;BME280;45554;51.096;16.976;2022-11-20T08:16:01;99824.92;;;-3.26;72.75
59686;BME280;45554;51.096;16.976;2022-11-20T08:18:29;99817.31;;;-3.16;72.64
59686;BME280;45554;51.096;16.976;2022-11-20T08:21:03;99815.54;;;-3.05;72.49
59686;BME280;45554;51.096;16.976;2022-11-20T08:23:32;99811.70;;;-2.96;72.13
59686;BME280;45554;51.096;16.976;2022-11-20T08:25:59;99808.37;;;-2.87;71.83
59686;BME280;45554;51.096;16.976;2022-11-20T08:28:27;99804.02;;;-2.78;71.89
59686;BME280;45554;51.096;16.976;2022-11-20T08:30:59;99803.27;;;-2.70;71.63
59686;BME280;45554;51.096;16.976;2022-11-20T08:33:28;99798.23;;;-2.63;71.40
59686;BME280;45554;51.096;16.976;2022-11-20T08:36:00;99798.86;;;-2.56;71.23
59686;BME280;45554;51.096;16.976;2022-11-20T08:38:29;99799.33;;;-2.51;71.02
59686;BME280;45554;51.096;16.976;2022-11-20T08:40:58;99798.05;;;-2.43;71.02
59686;BME280;45554;51.096;16.976;2022-11-20T08:43:45;99796.93;;;-2.34;70.98
59686;BME280;45554;51.096;16.976;2022-11-20T08:46:14;99794.63;;;-2.27;70.77
59686;BME280;45554;51.096;16.976;2022-11-20T08:48:42;99792.66;;;-2.19;70.54
59686;BME280;45554;51.096;16.976;2022-11-20T08:51:10;99790.02;;;-2.12;70.37
59686;BME280;45554;51.096;16.976;2022-11-20T08:53:40;99795.77;;;-2.05;70.32
59686;BME280;45554;51.096;16.976;2022-11-20T08:56:08;99796.71;;;-1.98;70.09
59686;BME280;45554;51.096;16.976;2022-11-20T08:58:38;99795.27;;;-1.90;70.09
59686;BME280;45554;51.096;16.976;2022-11-20T09:01:27;99792.40;;;-1.80;70.11
59686;BME280;45554;51.096;16.976;2022-11-20T09:03:56;99789.55;;;-1.72;69.78
59686;BME280;45554;51.096;16.976;2022-11-20T09:06:25;99787.74;;;-1.64;69.59
59686;BME280;45554;51.096;16.976;2022-11-20T09:08:54;99784.01;;;-1.56;69.56
59686;BME280;45554;51.096;16.976;2022-11-20T09:11:22;99781.18;;;-1.49;69.33
59686;BME280;45554;51.096;16.976;2022-11-20T09:13:50;99776.65;;;-1.44;69.18
59686;BME280;45554;51.096;16.976;2022-11-20T09:16:18;99779.13;;;-1.36;69.17
59686;BME280;45554;51.096;16.976;2022-11-20T09:18:46;99779.66;;;-1.27;68.96
59686;BME280;45554;51.096;16.976;2022-11-20T09:21:28;99776.09;;;-1.18;68.72
59686;BME280;45554;51.096;16.976;2022-11-20T09:23:56;99775.98;;;-1.11;68.71
59686;BME280;45554;51.096;16.976;2022-11-20T09:26:24;99780.31;;;-1.01;68.64
59686;BME280;45554;51.096;16.976;2022-11-20T09:28:52;99776.05;;;-0.91;68.64
59686;BME280;45554;51.096;16.976;2022-11-20T09:31:25;99771.23;;;-0.81;68.35
59686;BME280;45554;51.096;16.976;2022-11-20T09:33:53;99769.91;;;-0.74;67.86
59686;BME280;45554;51.096;16.976;2022-11-20T09:36:21;99772.39;;;-0.68;67.74
59686;BME280;45554;51.096;16.976;2022-11-20T09:38:49;99767.44;;;-0.61;67.53
59686;BME280;45554;51.096;16.976;2022-11-20T09:53:30;99748.83;;;-0.31;66.64
59686;BME280;45554;51.096;16.976;2022-11-20T09:55:30;99746.60;;;-0.22;66.65
59686;BME280;45554;51.096;16.976;2022-11-20T09:57:59;99740.80;;;-0.16;66.48
59686;BME280;45554;51.096;16.976;2022-11-20T10:00:28;99741.30;;;-0.06;66.04
59686;BME280;45554;51.096;16.976;2022-11-20T10:03:13;99742.88;;;0.01;66.12
59686;BME280;45554;51.096;16.976;2022-11-20T10:05:45;99742.92;;;0.07;65.49
59686;BME280;45554;51.096;16.976;2022-11-20T10:10:46;99733.07;;;0.17;65.00
59686;BME280;45554;51.096;16.976;2022-11-20T10:16:33;99730.71;;;0.32;64.77
59686;BME280;45554;51.096;16.976;2022-11-20T10:22:06;99718.92;;;0.42;64.43
59686;BME280;45554;51.096;16.976;2022-11-20T10:24:56;99712.05;;;0.49;64.41
59686;BME280;45554;51.096;16.976;2022-11-20T10:30:18;99702.69;;;0.59;63.89
59686;BME280;45554;51.096;16.976;2022-11-20T10:32:54;99703.58;;;0.64;63.53
59686;BME280;45554;51.096;16.976;2022-11-20T10:35:34;99693.77;;;0.71;63.55
59686;BME280;45554;51.096;16.976;2022-11-20T10:38:09;99695.54;;;0.77;63.39
59686;BME280;45554;51.096;16.976;2022-11-20T10:40:41;99700.73;;;0.83;63.05
59686;BME280;45554;51.096;16.976;2022-11-20T10:43:18;99701.99;;;0.88;62.78
59686;BME280;45554;51.096;16.976;2022-11-20T10:46:09;99701.69;;;0.94;62.89
59686;BME280;45554;51.096;16.976;2022-11-20T10:48:43;99699.06;;;1.02;62.83
59686;BME280;45554;51.096;16.976;2022-11-20T10:51:41;99698.04;;;1.09;62.53
59686;BME280;45554;51.096;16.976;2022-11-20T10:57:34;99683.13;;;1.18;62.06
59686;BME280;45554;51.096;16.976;2022-11-20T11:00:11;99682.62;;;1.24;62.17
59686;BME280;45554;51.096;16.976;2022-11-20T11:02:46;99678.84;;;1.30;62.10
59686;BME280;45554;51.096;16.976;2022-11-20T11:05:39;99674.89;;;1.37;61.94
59686;BME280;45554;51.096;16.976;2022-11-20T11:08:19;99673.67;;;1.43;61.57
59686;BME280;45554;51.096;16.976;2022-11-20T11:10:48;99670.73;;;1.50;61.52
59686;BME280;45554;51.096;16.976;2022-11-20T11:13:25;99664.79;;;1.58;61.24
59686;BME280;45554;51.096;16.976;2022-11-20T11:15:55;99663.84;;;1.68;61.05
59686;BME280;45554;51.096;16.976;2022-11-20T11:20:54;99654.94;;;1.83;60.30
59686;BME280;45554;51.096;16.976;2022-11-20T11:23:29;99652.19;;;1.88;59.83
59686;BME280;45554;51.096;16.976;2022-11-20T11:26:00;99651.02;;;1.93;59.24
59686;BME280;45554;51.096;16.976;2022-11-20T11:28:28;99647.21;;;1.99;59.29
59686;BME280;45554;51.096;16.976;2022-11-20T11:30:56;99646.04;;;2.04;58.76
59686;BME280;45554;51.096;16.976;2022-11-20T11:33:26;99640.16;;;2.10;58.71
59686;BME280;45554;51.096;16.976;2022-11-20T11:35:57;99634.27;;;2.15;58.41
59686;BME280;45554;51.096;16.976;2022-11-20T11:38:32;99632.95;;;2.25;58.64
59686;BME280;45554;51.096;16.976;2022-11-20T11:41:03;99626.70;;;2.37;58.66
59686;BME280;45554;51.096;16.976;2022-11-20T11:43:35;99620.29;;;2.48;58.29
59686;BME280;45554;51.096;16.976;2022-11-20T11:46:32;99618.41;;;2.63;57.97
59686;BME280;45554;51.096;16.976;2022-11-20T11:49:22;99618.48;;;2.78;57.74
59686;BME280;45554;51.096;16.976;2022-11-20T11:54:56;99607.79;;;3.11;57.31
59686;BME280;45554;51.096;16.976;2022-11-20T11:57:46;99607.02;;;3.29;57.05
59686;BME280;45554;51.096;16.976;2022-11-20T12:00:21;99601.65;;;3.48;56.75
59686;BME280;45554;51.096;16.976;2022-11-20T12:03:13;99597.98;;;3.64;56.59
59686;BME280;45554;51.096;16.976;2022-11-20T12:05:49;99593.30;;;3.77;56.25
59686;BME280;45554;51.096;16.976;2022-11-20T12:08:43;99593.44;;;3.97;55.72
59686;BME280;45554;51.096;16.976;2022-11-20T12:11:13;99598.19;;;4.13;55.74
59686;BME280;45554;51.096;16.976;2022-11-20T12:13:53;99589.79;;;4.19;55.13
59686;BME280;45554;51.096;16.976;2022-11-20T12:16:21;99587.14;;;4.34;55.04
59686;BME280;45554;51.096;16.976;2022-11-20T12:18:52;99588.27;;;4.48;55.13
59686;BME280;45554;51.096;16.976;2022-11-20T12:32:54;99579.11;;;5.26;53.52
59686;BME280;45554;51.096;16.976;2022-11-20T12:36:06;99580.10;;;5.43;53.73
59686;BME280;45554;51.096;16.976;2022-11-20T12:38:58;99583.76;;;5.61;53.12
59686;BME280;45554;51.096;16.976;2022-11-20T12:41:51;99579.70;;;5.71;53.00
59686;BME280;45554;51.096;16.976;2022-11-20T12:59:55;99561.80;;;6.30;51.17
59686;BME280;45554;51.096;16.976;2022-11-20T13:02:33;99559.38;;;6.37;51.25
59686;BME280;45554;51.096;16.976;2022-11-20T13:07:41;99545.24;;;6.56;51.29
59686;BME280;45554;51.096;16.976;2022-11-20T13:10:18;99540.39;;;6.66;50.80
59686;BME280;45554;51.096;16.976;2022-11-20T13:13:00;99540.10;;;6.68;50.67
59686;BME280;45554;51.096;16.976;2022-11-20T13:15:53;99531.38;;;6.79;50.85
59686;BME280;45554;51.096;16.976;2022-11-20T13:18:23;99526.41;;;6.88;50.17
59686;BME280;45554;51.096;16.976;2022-11-20T13:20:51;99521.03;;;6.94;50.28
59686;BME280;45554;51.096;16.976;2022-11-20T13:23:24;99517.59;;;7.00;49.86
59686;BME280;45554;51.096;16.976;2022-11-20T13:26:19;99513.84;;;7.05;49.85
59686;BME280;45554;51.096;16.976;2022-11-20T13:29:09;99509.08;;;7.06;49.48
59686;BME280;45554;51.096;16.976;2022-11-20T13:31:42;99509.98;;;7.05;49.43
59686;BME280;45554;51.096;16.976;2022-11-20T13:34:24;99502.80;;;7.06;49.13
59686;BME280;45554;51.096;16.976;2022-11-20T13:36:55;99501.76;;;7.12;49.28
59686;BME280;45554;51.096;16.976;2022-11-20T13:39:29;99502.38;;;7.21;49.41
59686;BME280;45554;51.096;16.976;2022-11-20T13:42:03;99505.15;;;7.31;48.99
59686;BME280;45554;51.096;16.976;2022-11-20T13:45:01;99505.84;;;7.34;48.67
59686;BME280;45554;51.096;16.976;2022-11-20T13:47:29;99506.16;;;7.35;48.09
59686;BME280;45554;51.096;16.976;2022-11-20T13:49:58;99499.09;;;7.27;48.13
59686;BME280;45554;51.096;16.976;2022-11-20T13:57:56;99494.44;;;6.92;47.61
59686;BME280;45554;51.096;16.976;2022-11-20T14:00:26;99496.23;;;6.75;47.65
59686;BME280;45554;51.096;16.976;2022-11-20T14:03:13;99498.08;;;6.59;47.70
59686;BME280;45554;51.096;16.976;2022-11-20T14:05:57;99497.73;;;6.38;47.54
59686;BME280;45554;51.096;16.976;2022-11-20T14:08:49;99503.77;;;6.14;47.31
59686;BME280;45554;51.096;16.976;2022-11-20T14:11:20;99495.80;;;5.95;47.78
59686;BME280;45554;51.096;16.976;2022-11-20T14:14:00;99493.63;;;5.82;47.97
59686;BME280;45554;51.096;16.976;2022-11-20T14:16:33;99485.25;;;5.68;48.14
59686;BME280;45554;51.096;16.976;2022-11-20T14:21:51;99485.84;;;5.33;47.95
59686;BME280;45554;51.096;16.976;2022-11-20T14:24:22;99483.92;;;5.14;48.09
59686;BME280;45554;51.096;16.976;2022-11-20T14:26:51;99478.73;;;4.98;48.12
59686;BME280;45554;51.096;16.976;2022-11-20T14:29:23;99475.49;;;4.85;48.38